createdAt,value
2018-07-03T06:51:18.512Z,43.47
2018-07-03T06:53:46.146Z,41.57
2018-07-03T06:56:13.827Z,41.55
2018-07-03T06:58:41.473Z,41.17
2018-07-03T07:01:09.118Z,42.08
2018-07-03T07:03:36.761Z,40.71
2018-07-03T07:06:04.444Z,40.01
2018-07-03T07:08:32.177Z,39.27
2018-07-03T07:10:59.735Z,40.26
2018-07-03T07:13:27.376Z,38.76
2018-07-03T07:15:55.072Z,40.00
2018-07-03T07:18:22.715Z,39.53
2018-07-03T07:20:50.357Z,39.25
2018-07-03T07:23:18.035Z,37.68
2018-07-03T07:25:45.692Z,38.21
2018-07-03T07:28:13.366Z,38.21
2018-07-03T07:30:41.023Z,38.78
2018-07-03T07:33:08.676Z,38.47
2018-07-03T07:35:36.320Z,38.66
2018-07-03T07:38:04.212Z,37.91
2018-07-03T07:40:31.866Z,37.07
2018-07-03T07:42:59.487Z,36.51
2018-07-03T07:45:27.123Z,36.88
2018-07-03T07:47:54.775Z,36.85
2018-07-03T07:50:22.379Z,36.98
2018-07-03T07:52:50.048Z,35.74
2018-07-03T07:55:17.659Z,35.33
2018-07-03T07:57:45.280Z,35.13
2018-07-03T08:00:13.301Z,34.01
2018-07-03T08:02:40.879Z,34.00
2018-07-03T08:05:08.531Z,34.47
2018-07-03T08:07:36.167Z,35.41
2018-07-03T08:10:04.107Z,36.06
2018-07-03T08:12:31.786Z,36.57
2018-07-03T08:14:59.415Z,36.18
2018-07-03T08:17:27.001Z,35.56
2018-07-03T08:19:54.586Z,36.40
2018-07-03T08:22:22.199Z,35.27
2018-07-03T08:24:49.784Z,35.57
2018-07-03T08:27:17.413Z,35.71
2018-07-03T08:29:45.031Z,36.85
2018-07-03T08:32:12.666Z,37.26
2018-07-03T08:34:40.322Z,36.76
2018-07-03T08:37:07.918Z,36.73
2018-07-03T08:39:35.534Z,37.21
2018-07-03T08:42:03.172Z,37.58
2018-07-03T08:44:30.787Z,37.27
2018-07-03T08:46:58.413Z,37.50
2018-07-03T08:49:26.032Z,37.60
2018-07-03T08:51:53.690Z,38.42
2018-07-03T08:54:21.224Z,38.18
2018-07-03T08:56:48.825Z,37.78
2018-07-03T08:59:16.413Z,38.87
2018-07-03T09:03:12.415Z,38.25
2018-07-03T09:05:40.077Z,39.56
2018-07-03T09:08:07.748Z,37.52
2018-07-03T09:10:35.447Z,38.51
2018-07-03T09:13:03.123Z,37.95
2018-07-03T09:15:30.792Z,36.79
2018-07-03T09:17:58.528Z,37.99
2018-07-03T09:20:26.140Z,38.52
2018-07-03T09:22:53.900Z,38.25
2018-07-03T09:25:21.530Z,37.70
2018-07-03T09:27:49.166Z,37.74
2018-07-03T09:30:16.823Z,37.98
2018-07-03T09:32:44.456Z,37.70
2018-07-03T09:35:12.120Z,37.76
2018-07-03T09:37:39.777Z,37.87
2018-07-03T09:40:07.436Z,37.26
2018-07-03T09:42:35.123Z,37.19
2018-07-03T09:45:03.104Z,37.24
2018-07-03T09:47:30.743Z,36.04
2018-07-03T09:49:58.374Z,35.67
2018-07-03T09:52:26.032Z,35.72
2018-07-03T09:54:53.716Z,34.31
2018-07-03T09:57:21.380Z,34.56
2018-07-03T09:59:49.107Z,35.87
2018-07-03T10:02:16.768Z,35.72
2018-07-03T10:04:44.420Z,34.42
2018-07-03T10:07:12.074Z,35.64
2018-07-03T10:09:39.711Z,34.94
2018-07-03T10:12:07.399Z,34.26
2018-07-03T10:14:35.349Z,35.89
2018-07-03T10:17:03.010Z,34.24
2018-07-03T10:19:30.699Z,35.68
2018-07-03T10:21:58.354Z,36.03
2018-07-03T10:24:25.989Z,36.49
2018-07-03T10:26:53.864Z,36.69
2018-07-03T10:29:21.526Z,36.27
2018-07-03T10:31:49.171Z,36.48
2018-07-03T10:34:16.894Z,37.74
2018-07-03T10:36:44.588Z,36.33
2018-07-03T10:39:12.600Z,37.26
2018-07-03T10:41:40.446Z,38.25
2018-07-03T10:44:08.095Z,36.73
2018-07-03T10:46:35.764Z,37.52
2018-07-03T10:49:03.635Z,37.07
2018-07-03T10:51:31.268Z,37.54
2018-07-03T10:53:58.968Z,37.26
2018-07-03T10:56:26.706Z,38.22
2018-07-03T10:58:54.687Z,38.40
2018-07-03T11:01:22.435Z,38.16
2018-07-03T11:03:50.326Z,38.07
2018-07-03T11:06:17.984Z,38.16
2018-07-03T11:08:45.697Z,37.96
2018-07-03T11:11:13.409Z,38.70
2018-07-03T11:13:41.126Z,39.53
2018-07-03T11:16:08.792Z,38.51
2018-07-03T11:18:36.430Z,39.51
2018-07-03T11:21:04.123Z,38.78
2018-07-03T11:23:31.851Z,38.46
2018-07-03T11:25:59.544Z,37.83
2018-07-03T11:28:27.371Z,39.24
2018-07-03T11:30:55.036Z,39.49
2018-07-03T11:33:22.712Z,39.53
2018-07-03T11:35:50.460Z,39.11
2018-07-03T11:38:18.168Z,40.14
2018-07-03T11:40:45.866Z,40.31
2018-07-03T11:43:13.584Z,39.09
2018-07-03T11:45:41.279Z,39.21
2018-07-03T11:48:08.975Z,39.27
2018-07-03T11:50:36.627Z,39.73
2018-07-03T11:53:04.355Z,38.75
2018-07-03T11:55:32.104Z,39.29
2018-07-03T11:57:59.783Z,38.26
2018-07-03T12:00:27.515Z,38.31
2018-07-03T12:02:55.167Z,38.13
2018-07-03T12:05:22.800Z,38.68
2018-07-03T12:07:50.567Z,37.97
2018-07-03T12:10:33.650Z,36.83
2018-07-03T12:13:01.348Z,37.68
2018-07-03T12:15:29.075Z,36.45
2018-07-03T12:17:56.747Z,36.23
2018-07-03T12:20:24.391Z,37.01
2018-07-03T12:22:52.564Z,36.21
2018-07-03T12:25:20.317Z,36.69
2018-07-03T12:27:48.112Z,36.56
2018-07-03T12:30:15.796Z,35.96
2018-07-03T12:32:43.454Z,35.16
2018-07-03T12:35:11.236Z,35.54
2018-07-03T12:37:38.951Z,34.87
2018-07-03T12:40:06.633Z,34.67
2018-07-03T12:42:34.519Z,35.75
2018-07-03T12:45:02.600Z,35.80
2018-07-03T12:47:30.363Z,35.67
2018-07-03T12:49:58.012Z,35.35
2018-07-03T12:52:25.688Z,35.29
2018-07-03T12:54:53.346Z,35.52
2018-07-03T12:57:21.205Z,35.58
2018-07-03T12:59:48.895Z,35.02
2018-07-03T13:02:17.420Z,34.59
2018-07-03T13:04:45.271Z,34.43
2018-07-03T13:07:12.926Z,34.56
2018-07-03T13:09:41.059Z,34.40
2018-07-03T13:12:08.815Z,34.58
2018-07-03T13:14:36.732Z,35.29
2018-07-03T13:17:04.424Z,35.33
2018-07-03T13:19:32.064Z,33.85
2018-07-03T13:21:59.711Z,35.43
2018-07-03T13:24:28.281Z,35.10
2018-07-03T13:26:56.058Z,35.30
2018-07-03T13:29:23.762Z,34.71
2018-07-03T13:31:51.422Z,35.00
2018-07-03T13:34:19.108Z,34.48
2018-07-03T13:36:46.905Z,34.70
2018-07-03T13:39:14.598Z,34.95
2018-07-03T13:41:42.275Z,33.71
2018-07-03T13:44:10.053Z,34.14
2018-07-03T13:46:37.750Z,34.58
2018-07-03T13:49:05.422Z,34.40
2018-07-03T13:51:33.327Z,34.26
2018-07-03T13:54:01.008Z,34.54
2018-07-03T13:56:28.966Z,33.52
2018-07-03T13:58:57.096Z,33.75
2018-07-03T14:01:28.994Z,33.60
2018-07-03T14:03:56.987Z,33.43
2018-07-03T14:06:24.795Z,32.91
2018-07-03T14:08:52.459Z,33.39
2018-07-03T14:11:20.295Z,33.52
2018-07-03T14:13:47.959Z,33.73
2018-07-03T14:16:16.135Z,32.28
2018-07-03T14:18:43.874Z,31.68
2018-07-03T14:21:11.618Z,32.11
2018-07-03T14:23:39.416Z,32.89
2018-07-03T14:26:07.201Z,33.02
2018-07-03T14:28:34.827Z,31.14
2018-07-03T14:31:02.498Z,32.39
2018-07-03T14:33:30.199Z,32.75
2018-07-03T14:35:57.906Z,32.67
2018-07-03T14:38:25.681Z,32.53
2018-07-03T14:40:53.365Z,32.38
2018-07-03T14:43:21.063Z,33.13
2018-07-03T14:45:48.742Z,30.74
2018-07-03T14:48:16.487Z,31.96
2018-07-03T14:50:44.409Z,32.82
2018-07-03T14:53:12.179Z,31.72
2018-07-03T14:55:39.823Z,32.89
2018-07-03T14:58:07.507Z,33.15
2018-07-03T15:00:35.246Z,34.04
2018-07-03T15:03:03.045Z,36.15
2018-07-03T15:05:30.828Z,36.25
2018-07-03T15:07:58.631Z,36.41
2018-07-03T15:10:35.132Z,36.56
2018-07-03T15:13:04.281Z,35.45
2018-07-03T15:15:32.160Z,34.53
2018-07-03T15:17:59.907Z,35.25
2018-07-03T15:20:27.814Z,35.79
2018-07-03T15:23:02.396Z,35.49
2018-07-03T15:25:30.320Z,34.67
2018-07-03T15:27:58.171Z,34.04
2018-07-03T15:30:38.024Z,35.79
2018-07-03T15:33:05.747Z,34.33
2018-07-03T15:35:33.567Z,36.20
2018-07-03T15:38:01.583Z,35.42
2018-07-03T15:40:29.354Z,35.62
2018-07-03T15:42:57.107Z,34.78
2018-07-03T15:45:24.938Z,35.24
2018-07-03T15:47:53.319Z,34.47
2018-07-03T15:50:21.471Z,34.83
2018-07-03T15:52:49.461Z,35.15
2018-07-03T15:55:17.397Z,35.11
2018-07-03T15:57:45.176Z,35.11
2018-07-03T16:00:14.506Z,34.93
2018-07-03T16:02:59.743Z,34.40
2018-07-03T16:05:49.575Z,34.94
2018-07-03T16:08:38.173Z,35.37
2018-07-03T16:11:05.998Z,34.65
2018-07-03T16:13:33.899Z,34.72
2018-07-03T16:16:01.775Z,34.36
2018-07-03T16:18:29.652Z,33.34
2018-07-03T16:20:57.391Z,34.42
2018-07-03T16:23:25.980Z,34.41
2018-07-03T16:25:53.768Z,34.43
2018-07-03T16:28:21.835Z,34.77
2018-07-03T16:30:49.808Z,33.36
2018-07-03T16:33:17.678Z,34.14
2018-07-03T16:35:45.312Z,34.51
2018-07-03T16:38:13.273Z,34.27
2018-07-03T16:40:41.864Z,34.70
2018-07-03T16:43:09.671Z,33.71
2018-07-03T16:45:37.459Z,32.36
2018-07-03T16:48:05.195Z,32.33
2018-07-03T16:50:33.653Z,33.05
2018-07-03T16:53:01.817Z,32.83
2018-07-03T16:55:29.545Z,33.07
2018-07-03T16:57:57.521Z,32.15
2018-07-03T17:00:26.928Z,32.32
2018-07-03T17:02:54.739Z,32.69
2018-07-03T17:05:23.160Z,33.07
2018-07-03T17:07:51.268Z,32.84
2018-07-03T17:10:34.200Z,32.85
2018-07-03T17:13:02.161Z,32.22
2018-07-03T17:15:30.168Z,32.25
2018-07-03T17:17:58.014Z,32.97
2018-07-03T17:20:26.300Z,33.57
2018-07-03T17:22:54.335Z,32.30
2018-07-03T17:25:22.471Z,33.21
2018-07-03T17:27:50.676Z,32.94
2018-07-03T17:30:18.523Z,33.34
2018-07-03T17:32:46.247Z,33.65
2018-07-03T17:35:14.048Z,33.33
2018-07-03T17:37:41.808Z,32.74
2018-07-03T17:40:27.041Z,32.75
2018-07-03T17:44:20.947Z,32.99
2018-07-03T17:46:48.793Z,32.96
2018-07-03T17:49:17.271Z,32.96
2018-07-03T17:51:45.013Z,34.31
2018-07-03T17:54:13.081Z,33.61
2018-07-03T17:56:40.942Z,34.14
2018-07-03T17:59:08.837Z,34.30
2018-07-03T18:01:36.633Z,34.97
2018-07-03T18:04:04.432Z,34.84
2018-07-03T18:06:32.201Z,35.74
2018-07-03T18:09:00.872Z,36.33
2018-07-03T18:11:28.871Z,35.74
2018-07-03T18:13:56.598Z,35.65
2018-07-03T18:16:24.474Z,35.23
2018-07-03T18:18:58.260Z,36.04
2018-07-03T18:21:26.375Z,36.41
2018-07-03T18:23:54.419Z,36.55
2018-07-03T18:26:22.416Z,37.25
2018-07-03T18:28:50.590Z,36.75
2018-07-03T18:31:19.969Z,37.68
2018-07-03T18:33:47.735Z,38.14
2018-07-03T18:36:15.589Z,37.99
2018-07-03T18:38:43.897Z,38.18
2018-07-03T18:41:12.449Z,38.56
2018-07-03T18:43:40.613Z,38.80
2018-07-03T18:46:08.531Z,39.67
2018-07-03T18:48:36.662Z,39.53
2018-07-03T18:51:04.668Z,39.63
2018-07-03T18:53:32.825Z,39.65
2018-07-03T18:56:00.796Z,40.33
2018-07-03T18:58:28.586Z,40.96
2018-07-03T19:00:56.460Z,41.36
2018-07-03T19:03:24.359Z,41.65
2018-07-03T19:05:52.927Z,41.90
2018-07-03T19:08:20.807Z,41.31
2018-07-03T19:10:48.633Z,42.33
2018-07-03T19:13:16.391Z,42.49
2018-07-03T19:15:44.347Z,42.09
2018-07-03T19:18:12.156Z,42.23
2018-07-03T19:20:39.924Z,42.46
2018-07-03T19:23:07.744Z,43.04
2018-07-03T19:25:35.452Z,44.00
2018-07-03T19:28:03.204Z,42.99
2018-07-03T19:30:30.991Z,43.82
2018-07-03T19:33:00.802Z,44.02
2018-07-03T19:35:28.518Z,44.38
2018-07-03T19:37:56.221Z,44.05
2018-07-03T19:40:23.988Z,44.53
2018-07-03T19:43:30.848Z,45.32
2018-07-03T19:46:00.121Z,45.28
2018-07-03T19:48:28.019Z,45.57
2018-07-03T19:50:55.903Z,45.22
2018-07-03T19:53:23.638Z,45.23
2018-07-03T19:55:52.698Z,44.69
2018-07-03T19:58:20.705Z,45.55
2018-07-03T20:00:49.491Z,44.86
2018-07-03T20:03:17.259Z,45.30
2018-07-03T20:05:45.350Z,45.46
2018-07-03T20:08:13.189Z,46.37
2018-07-03T20:10:41.006Z,46.16
2018-07-03T20:13:11.250Z,47.08
2018-07-03T20:15:39.048Z,46.66
2018-07-03T20:18:08.235Z,47.02
2018-07-03T20:20:36.000Z,47.11
2018-07-03T20:23:03.794Z,46.66
2018-07-03T20:25:31.511Z,47.19
2018-07-03T20:27:59.611Z,46.46
2018-07-03T20:30:27.379Z,46.00
2018-07-03T20:32:55.043Z,47.12
2018-07-03T20:35:22.747Z,46.46
2018-07-03T20:38:02.030Z,47.80
2018-07-03T20:40:51.207Z,47.49
2018-07-03T20:43:19.215Z,46.70
2018-07-03T20:45:47.346Z,47.90
2018-07-03T20:48:15.067Z,48.07
2018-07-03T20:50:42.795Z,48.11
2018-07-03T20:53:10.590Z,48.07
2018-07-03T20:55:38.419Z,47.48
2018-07-03T20:58:06.127Z,48.26
2018-07-03T21:00:33.999Z,48.50
2018-07-03T21:03:01.708Z,48.08
2018-07-03T21:05:29.958Z,47.53
2018-07-03T21:07:57.830Z,48.31
2018-07-03T21:10:35.790Z,47.83
2018-07-03T21:13:03.392Z,48.87
2018-07-03T21:15:31.076Z,48.93
2018-07-03T21:17:58.926Z,48.40
2018-07-03T21:20:26.644Z,47.96
2018-07-03T21:22:54.318Z,48.06
2018-07-03T21:25:22.022Z,48.08
2018-07-03T21:27:49.610Z,48.74
2018-07-03T21:30:17.221Z,49.37
2018-07-03T21:32:45.369Z,48.48
2018-07-03T21:35:13.229Z,49.22
2018-07-03T21:37:40.861Z,49.41
2018-07-03T21:40:08.470Z,49.27
2018-07-03T21:42:36.458Z,49.49
2018-07-03T21:45:04.199Z,49.82
2018-07-03T21:47:31.827Z,49.79
2018-07-03T21:49:59.487Z,49.16
2018-07-03T21:52:27.210Z,50.20
2018-07-03T21:54:54.778Z,49.38
2018-07-03T21:57:22.362Z,49.87
2018-07-03T21:59:50.006Z,49.80
2018-07-03T22:02:17.803Z,50.86
2018-07-03T22:04:45.446Z,50.67
2018-07-03T22:07:13.039Z,51.04
2018-07-03T22:09:40.714Z,51.40
2018-07-03T22:12:08.355Z,51.34
2018-07-03T22:14:38.497Z,51.42
2018-07-03T22:17:06.466Z,51.30
2018-07-03T22:19:34.070Z,51.94
2018-07-03T22:22:01.683Z,51.69
2018-07-03T22:24:29.399Z,51.66
2018-07-03T22:26:57.010Z,51.82
2018-07-03T22:29:24.654Z,52.07
2018-07-03T22:31:52.218Z,53.02
2018-07-03T22:34:19.793Z,53.20
2018-07-03T22:36:47.367Z,53.37
2018-07-03T22:39:14.969Z,53.67
2018-07-03T22:41:42.557Z,53.38
2018-07-03T22:44:10.221Z,53.97
2018-07-03T22:46:37.866Z,53.20
2018-07-03T22:49:05.461Z,54.27
2018-07-03T22:51:33.098Z,54.66
2018-07-03T22:54:00.753Z,54.60
2018-07-03T22:56:28.485Z,54.44
2018-07-03T22:58:56.197Z,55.17
2018-07-03T23:01:23.795Z,54.52
2018-07-03T23:03:51.427Z,54.75
2018-07-03T23:06:19.018Z,54.41
2018-07-03T23:08:46.654Z,53.73
2018-07-03T23:11:14.357Z,54.32
2018-07-03T23:13:42.047Z,53.83
2018-07-03T23:16:09.695Z,54.29
2018-07-03T23:18:37.345Z,54.05
2018-07-03T23:21:05.610Z,54.21
2018-07-03T23:23:33.210Z,54.32
2018-07-03T23:26:00.878Z,54.44
2018-07-03T23:28:28.517Z,54.91
2018-07-03T23:30:56.137Z,55.16
2018-07-03T23:33:23.762Z,55.10
2018-07-03T23:35:51.446Z,53.80
2018-07-03T23:38:19.075Z,54.79
2018-07-03T23:40:46.822Z,54.48
2018-07-03T23:43:14.377Z,53.97
2018-07-03T23:45:48.974Z,55.52
2018-07-03T23:48:34.169Z,54.84
2018-07-03T23:51:19.952Z,55.05
2018-07-03T23:54:05.023Z,55.15
2018-07-03T23:56:49.965Z,54.71
2018-07-03T23:59:35.256Z,55.89
